sensor_id;sensor_type;location;lat;lon;timestamp;pressure;altitude;pressure_sealevel;temperature;humidity
54308;BME280;40208;39.778;2.710;2023-02-16T00:01:42;102767.44;;;6.86;100.00
54308;BME280;40208;39.778;2.710;2023-02-16T00:04:27;102763.91;;;6.87;100.00
54308;BME280;40208;39.778;2.710;2023-02-16T00:07:12;102761.28;;;6.87;100.00
54308;BME280;40208;39.778;2.710;2023-02-16T00:09:56;102763.00;;;6.80;100.00
54308;BME280;40208;39.778;2.710;2023-02-16T00:12:41;102760.41;;;6.88;100.00
54308;BME280;40208;39.778;2.710;2023-02-16T00:15:52;102763.03;;;6.87;100.00
54308;BME280;40208;39.778;2.710;2023-02-16T00:18:36;102772.72;;;6.94;100.00
54308;BME280;40208;39.778;2.710;2023-02-16T00:21:21;102771.88;;;6.98;100.00
54308;BME280;40208;39.778;2.710;2023-02-16T00:24:05;102770.09;;;7.01;100.00
54308;BME280;40208;39.778;2.710;2023-02-16T00:26:50;102759.53;;;6.97;100.00
54308;BME280;40208;39.778;2.710;2023-02-16T00:29:35;102759.53;;;6.97;100.00
54308;BME280;40208;39.778;2.710;2023-02-16T00:32:20;102763.94;;;7.01;100.00
54308;BME280;40208;39.778;2.710;2023-02-16T00:35:12;102768.34;;;6.91;100.00
54308;BME280;40208;39.778;2.710;2023-02-16T00:37:57;102770.09;;;6.94;100.00
54308;BME280;40208;39.778;2.710;2023-02-16T00:40:41;102771.84;;;6.89;100.00
54308;BME280;40208;39.778;2.710;2023-02-16T00:43:27;102764.78;;;6.85;100.00
54308;BME280;40208;39.778;2.710;2023-02-16T00:46:12;102763.03;;;6.87;100.00
54308;BME280;40208;39.778;2.710;2023-02-16T00:48:56;102772.75;;;6.91;100.00
54308;BME280;40208;39.778;2.710;2023-02-16T00:51:41;102768.28;;;6.80;100.00
54308;BME280;40208;39.778;2.710;2023-02-16T00:54:26;102771.81;;;6.83;100.00
54308;BME280;40208;39.778;2.710;2023-02-16T00:57:11;102761.28;;;6.84;100.00
54308;BME280;40208;39.778;2.710;2023-02-16T01:00:00;102756.88;;;6.97;100.00
54308;BME280;40208;39.778;2.710;2023-02-16T01:02:46;102763.06;;;6.91;100.00
54308;BME280;40208;39.778;2.710;2023-02-16T01:05:32;102757.78;;;6.93;100.00
54308;BME280;40208;39.778;2.710;2023-02-16T01:08:16;102757.78;;;6.99;100.00
54308;BME280;40208;39.778;2.710;2023-02-16T01:11:19;102754.25;;;6.91;100.00
54308;BME280;40208;39.778;2.710;2023-02-16T01:14:04;102757.78;;;6.99;100.00
54308;BME280;40208;39.778;2.710;2023-02-16T01:16:49;102755.13;;;6.87;100.00
54308;BME280;40208;39.778;2.710;2023-02-16T01:19:33;102761.25;;;6.83;100.00
54308;BME280;40208;39.778;2.710;2023-02-16T01:22:18;102752.47;;;6.80;100.00
54308;BME280;40208;39.778;2.710;2023-02-16T01:25:03;102755.97;;;6.73;100.00
54308;BME280;40208;39.778;2.710;2023-02-16T01:27:48;102765.59;;;6.67;100.00
54308;BME280;40208;39.778;2.710;2023-02-16T01:30:33;102767.38;;;6.63;100.00
54308;BME280;40208;39.778;2.710;2023-02-16T01:33:17;102760.34;;;6.67;100.00
54308;BME280;40208;39.778;2.710;2023-02-16T01:36:02;102762.97;;;6.64;100.00
54308;BME280;40208;39.778;2.710;2023-02-16T01:38:47;102764.72;;;6.60;100.00
54308;BME280;40208;39.778;2.710;2023-02-16T01:47:36;102763.03;;;6.77;100.00
54308;BME280;40208;39.778;2.710;2023-02-16T01:50:22;102758.63;;;6.72;100.00
54308;BME280;40208;39.778;2.710;2023-02-16T01:56:03;102756.84;;;6.65;100.00
54308;BME280;40208;39.778;2.710;2023-02-16T01:58:49;102751.53;;;6.60;100.00
54308;BME280;40208;39.778;2.710;2023-02-16T02:07:57;102744.53;;;6.74;100.00
54308;BME280;40208;39.778;2.710;2023-02-16T02:13:33;102734.03;;;6.88;100.00
54308;BME280;40208;39.778;2.710;2023-02-16T02:16:22;102734.00;;;6.90;100.00
54308;BME280;40208;39.778;2.710;2023-02-16T02:19:08;102736.63;;;6.74;100.00
54308;BME280;40208;39.778;2.710;2023-02-16T02:28:13;102728.72;;;6.80;100.00
54308;BME280;40208;39.778;2.710;2023-02-16T02:39:47;102716.38;;;6.63;100.00
54308;BME280;40208;39.778;2.710;2023-02-16T02:42:43;102718.09;;;6.59;100.00
54308;BME280;40208;39.778;2.710;2023-02-16T02:45:33;102718.09;;;6.51;100.00
54308;BME280;40208;39.778;2.710;2023-02-16T02:48:19;102715.44;;;6.50;100.00
54308;BME280;40208;39.778;2.710;2023-02-16T02:51:10;102713.69;;;6.46;100.00
54308;BME280;40208;39.778;2.710;2023-02-16T03:00:26;102713.66;;;6.43;100.00
54308;BME280;40208;39.778;2.710;2023-02-16T03:03:26;102707.56;;;6.59;100.00
54308;BME280;40208;39.778;2.710;2023-02-16T03:06:15;102714.59;;;6.58;100.00
54308;BME280;40208;39.778;2.710;2023-02-16T03:09:02;102714.63;;;6.60;100.00
54308;BME280;40208;39.778;2.710;2023-02-16T03:11:48;102716.34;;;6.64;100.00
54308;BME280;40208;39.778;2.710;2023-02-16T03:14:58;102711.06;;;6.64;100.00
54308;BME280;40208;39.778;2.710;2023-02-16T03:17:44;102708.47;;;6.66;100.00
54308;BME280;40208;39.778;2.710;2023-02-16T03:20:48;102711.97;;;6.62;100.00
54308;BME280;40208;39.778;2.710;2023-02-16T03:23:51;102704.91;;;6.54;100.00
54308;BME280;40208;39.778;2.710;2023-02-16T03:26:55;102713.72;;;6.50;100.00
54308;BME280;40208;39.778;2.710;2023-02-16T03:30:00;102706.63;;;6.45;100.00
54308;BME280;40208;39.778;2.710;2023-02-16T03:32:45;102711.91;;;6.39;100.00
54308;BME280;40208;39.778;2.710;2023-02-16T03:35:29;102704.88;;;6.39;100.00
54308;BME280;40208;39.778;2.710;2023-02-16T03:38:14;102704.88;;;6.45;100.00
54308;BME280;40208;39.778;2.710;2023-02-16T03:40:59;102707.50;;;6.42;100.00
54308;BME280;40208;39.778;2.710;2023-02-16T03:43:44;102714.56;;;6.42;100.00
54308;BME280;40208;39.778;2.710;2023-02-16T03:46:29;102705.75;;;6.41;100.00
54308;BME280;40208;39.778;2.710;2023-02-16T03:49:14;102709.31;;;6.48;100.00
54308;BME280;40208;39.778;2.710;2023-02-16T03:51:58;102704.91;;;6.44;100.00
54308;BME280;40208;39.778;2.710;2023-02-16T03:54:43;102711.03;;;6.41;100.00
54308;BME280;40208;39.778;2.710;2023-02-16T03:57:27;102712.78;;;6.41;100.00
54308;BME280;40208;39.778;2.710;2023-02-16T04:00:11;102710.16;;;6.44;100.00
54308;BME280;40208;39.778;2.710;2023-02-16T04:02:56;102720.72;;;6.51;100.00
54308;BME280;40208;39.778;2.710;2023-02-16T04:05:40;102718.97;;;6.52;100.00
54308;BME280;40208;39.778;2.710;2023-02-16T04:08:25;102718.97;;;6.49;100.00
54308;BME280;40208;39.778;2.710;2023-02-16T04:11:10;102718.97;;;6.50;100.00
54308;BME280;40208;39.778;2.710;2023-02-16T04:14:12;102717.22;;;6.57;100.00
54308;BME280;40208;39.778;2.710;2023-02-16T04:16:57;102712.81;;;6.54;100.00
54308;BME280;40208;39.778;2.710;2023-02-16T04:19:41;102719.88;;;6.55;100.00
54308;BME280;40208;39.778;2.710;2023-02-16T04:22:26;102723.34;;;6.50;100.00
54308;BME280;40208;39.778;2.710;2023-02-16T04:25:10;102716.31;;;6.49;100.00
54308;BME280;40208;39.778;2.710;2023-02-16T04:27:55;102716.31;;;6.46;100.00
54308;BME280;40208;39.778;2.710;2023-02-16T04:30:40;102707.50;;;6.39;100.00
54308;BME280;40208;39.778;2.710;2023-02-16T04:33:24;102716.31;;;6.41;100.00
54308;BME280;40208;39.778;2.710;2023-02-16T04:36:09;102722.47;;;6.39;100.00
54308;BME280;40208;39.778;2.710;2023-02-16T04:38:53;102716.25;;;6.33;100.00
54308;BME280;40208;39.778;2.710;2023-02-16T04:41:38;102721.56;;;6.36;100.00
54308;BME280;40208;39.778;2.710;2023-02-16T04:44:22;102718.97;;;6.46;100.00
54308;BME280;40208;39.778;2.710;2023-02-16T04:47:07;102725.09;;;6.40;100.00
54308;BME280;40208;39.778;2.710;2023-02-16T04:49:52;102718.94;;;6.43;100.00
54308;BME280;40208;39.778;2.710;2023-02-16T04:52:37;102725.13;;;6.48;100.00
54308;BME280;40208;39.778;2.710;2023-02-16T04:55:21;102725.13;;;6.48;100.00
54308;BME280;40208;39.778;2.710;2023-02-16T04:58:05;102723.34;;;6.47;100.00
54308;BME280;40208;39.778;2.710;2023-02-16T05:00:50;102728.59;;;6.41;100.00
54308;BME280;40208;39.778;2.710;2023-02-16T05:03:34;102733.88;;;6.36;100.00
54308;BME280;40208;39.778;2.710;2023-02-16T05:06:19;102740.03;;;6.40;100.00
54308;BME280;40208;39.778;2.710;2023-02-16T05:09:04;102749.72;;;6.39;100.00
54308;BME280;40208;39.778;2.710;2023-02-16T05:11:48;102740.03;;;6.40;100.00
54308;BME280;40208;39.778;2.710;2023-02-16T05:14:51;102733.88;;;6.34;100.00
54308;BME280;40208;39.778;2.710;2023-02-16T05:17:36;102740.03;;;6.36;100.00
54308;BME280;40208;39.778;2.710;2023-02-16T05:20:20;102746.22;;;6.48;100.00
54308;BME280;40208;39.778;2.710;2023-02-16T05:23:25;102740.09;;;6.53;100.00
54308;BME280;40208;39.778;2.710;2023-02-16T05:26:09;102751.53;;;6.55;100.00
54308;BME280;40208;39.778;2.710;2023-02-16T05:28:54;102751.50;;;6.51;100.00
54308;BME280;40208;39.778;2.710;2023-02-16T05:31:38;102746.22;;;6.49;100.00
54308;BME280;40208;39.778;2.710;2023-02-16T05:34:23;102747.94;;;6.43;100.00
54308;BME280;40208;39.778;2.710;2023-02-16T05:37:08;102750.59;;;6.40;100.00
54308;BME280;40208;39.778;2.710;2023-02-16T05:39:52;102747.94;;;6.36;100.00
54308;BME280;40208;39.778;2.710;2023-02-16T05:42:37;102748.84;;;6.39;100.00
54308;BME280;40208;39.778;2.710;2023-02-16T05:45:21;102756.72;;;6.37;100.00
54308;BME280;40208;39.778;2.710;2023-02-16T05:48:06;102751.41;;;6.31;100.00
54308;BME280;40208;39.778;2.710;2023-02-16T05:50:53;102754.06;;;6.35;100.00
54308;BME280;40208;39.778;2.710;2023-02-16T05:53:38;102756.75;;;6.42;100.00
54308;BME280;40208;39.778;2.710;2023-02-16T05:56:23;102755.84;;;6.43;100.00
54308;BME280;40208;39.778;2.710;2023-02-16T05:59:08;102761.16;;;6.46;100.00
54308;BME280;40208;39.778;2.710;2023-02-16T06:01:53;102756.78;;;6.49;100.00
54308;BME280;40208;39.778;2.710;2023-02-16T06:04:38;102758.56;;;6.56;100.00
54308;BME280;40208;39.778;2.710;2023-02-16T06:07:22;102755.91;;;6.56;100.00
54308;BME280;40208;39.778;2.710;2023-02-16T06:10:07;102758.56;;;6.55;100.00
54308;BME280;40208;39.778;2.710;2023-02-16T06:12:52;102761.16;;;6.52;100.00
54308;BME280;40208;39.778;2.710;2023-02-16T06:15:36;102762.94;;;6.53;100.00
54308;BME280;40208;39.778;2.710;2023-02-16T06:18:23;102768.19;;;6.50;100.00
54308;BME280;40208;39.778;2.710;2023-02-16T06:21:07;102776.09;;;6.47;100.00
54308;BME280;40208;39.778;2.710;2023-02-16T06:23:52;102768.22;;;6.48;100.00
54308;BME280;40208;39.778;2.710;2023-02-16T06:26:37;102764.72;;;6.60;100.00
54308;BME280;40208;39.778;2.710;2023-02-16T06:29:22;102771.75;;;6.56;100.00
54308;BME280;40208;39.778;2.710;2023-02-16T06:32:06;102777.00;;;6.52;100.00
54308;BME280;40208;39.778;2.710;2023-02-16T06:34:51;102777.88;;;6.49;100.00
54308;BME280;40208;39.778;2.710;2023-02-16T06:37:35;102787.56;;;6.52;100.00
54308;BME280;40208;39.778;2.710;2023-02-16T06:40:20;102785.81;;;6.57;100.00
54308;BME280;40208;39.778;2.710;2023-02-16T06:43:05;102791.06;;;6.52;100.00
54308;BME280;40208;39.778;2.710;2023-02-16T06:45:50;102790.22;;;6.55;100.00
54308;BME280;40208;39.778;2.710;2023-02-16T06:48:34;102792.00;;;6.61;100.00
54308;BME280;40208;39.778;2.710;2023-02-16T06:51:19;102797.25;;;6.59;100.00
54308;BME280;40208;39.778;2.710;2023-02-16T06:54:03;102800.81;;;6.63;100.00
54308;BME280;40208;39.778;2.710;2023-02-16T06:56:48;102795.53;;;6.66;100.00
54308;BME280;40208;39.778;2.710;2023-02-16T06:59:33;102806.94;;;6.66;100.00
54308;BME280;40208;39.778;2.710;2023-02-16T07:02:17;102809.59;;;6.66;100.00
54308;BME280;40208;39.778;2.710;2023-02-16T07:05:01;102813.13;;;6.65;100.00
54308;BME280;40208;39.778;2.710;2023-02-16T07:07:46;102817.53;;;6.68;100.00
54308;BME280;40208;39.778;2.710;2023-02-16T07:10:30;102809.59;;;6.68;100.00
54308;BME280;40208;39.778;2.710;2023-02-16T07:13:15;102814.88;;;6.68;100.00
54308;BME280;40208;39.778;2.710;2023-02-16T07:15:59;102822.84;;;6.77;100.00
54308;BME280;40208;39.778;2.710;2023-02-16T07:18:44;102831.63;;;6.74;100.00
54308;BME280;40208;39.778;2.710;2023-02-16T07:21:30;102835.13;;;6.75;100.00
54308;BME280;40208;39.778;2.710;2023-02-16T07:24:14;102829.91;;;6.92;100.00
54308;BME280;40208;39.778;2.710;2023-02-16T07:26:59;102840.50;;;6.98;100.00
54308;BME280;40208;39.778;2.710;2023-02-16T07:29:43;102839.63;;;7.00;100.00
54308;BME280;40208;39.778;2.710;2023-02-16T07:32:29;102844.94;;;7.05;100.00
54308;BME280;40208;39.778;2.710;2023-02-16T07:35:14;102847.56;;;7.08;100.00
54308;BME280;40208;39.778;2.710;2023-02-16T07:37:59;102851.97;;;7.18;100.00
54308;BME280;40208;39.778;2.710;2023-02-16T07:40:43;102853.75;;;7.30;100.00
54308;BME280;40208;39.778;2.710;2023-02-16T07:43:28;102860.84;;;7.43;100.00
54308;BME280;40208;39.778;2.710;2023-02-16T07:46:12;102858.22;;;7.56;100.00
54308;BME280;40208;39.778;2.710;2023-02-16T07:48:56;102856.47;;;7.62;100.00
54308;BME280;40208;39.778;2.710;2023-02-16T07:51:41;102853.81;;;7.70;100.00
54308;BME280;40208;39.778;2.710;2023-02-16T07:54:25;102857.34;;;7.75;100.00
54308;BME280;40208;39.778;2.710;2023-02-16T07:57:10;102863.50;;;7.83;100.00
54308;BME280;40208;39.778;2.710;2023-02-16T07:59:55;102870.56;;;7.91;100.00
54308;BME280;40208;39.778;2.710;2023-02-16T08:02:40;102883.75;;;7.97;100.00
54308;BME280;40208;39.778;2.710;2023-02-16T08:05:24;102882.00;;;8.02;100.00
54308;BME280;40208;39.778;2.710;2023-02-16T08:08:09;102879.34;;;8.08;100.00
54308;BME280;40208;39.778;2.710;2023-02-16T08:10:53;102889.94;;;8.13;100.00
54308;BME280;40208;39.778;2.710;2023-02-16T08:13:39;102893.44;;;8.18;100.00
54308;BME280;40208;39.778;2.710;2023-02-16T08:16:24;102892.56;;;8.26;100.00
54308;BME280;40208;39.778;2.710;2023-02-16T08:19:08;102897.84;;;8.36;100.00
54308;BME280;40208;39.778;2.710;2023-02-16T08:21:56;102896.97;;;8.43;100.00
54308;BME280;40208;39.778;2.710;2023-02-16T08:24:40;102890.75;;;8.52;100.00
54308;BME280;40208;39.778;2.710;2023-02-16T08:27:25;102896.03;;;8.61;100.00
54308;BME280;40208;39.778;2.710;2023-02-16T08:30:10;102901.31;;;8.68;100.00
54308;BME280;40208;39.778;2.710;2023-02-16T08:32:55;102888.94;;;8.78;100.00
54308;BME280;40208;39.778;2.710;2023-02-16T08:35:44;102895.03;;;8.91;100.00
54308;BME280;40208;39.778;2.710;2023-02-16T08:38:29;102886.19;;;9.00;100.00
54308;BME280;40208;39.778;2.710;2023-02-16T08:41:16;102892.28;;;9.11;100.00
54308;BME280;40208;39.778;2.710;2023-02-16T08:44:01;102888.72;;;9.20;100.00
54308;BME280;40208;39.778;2.710;2023-02-16T08:46:46;102901.94;;;9.29;100.00
54308;BME280;40208;39.778;2.710;2023-02-16T08:49:31;102898.34;;;9.38;100.00
54308;BME280;40208;39.778;2.710;2023-02-16T08:52:16;102893.00;;;9.45;100.00
54308;BME280;40208;39.778;2.710;2023-02-16T08:55:00;102893.81;;;9.55;100.00
54308;BME280;40208;39.778;2.710;2023-02-16T08:57:45;102893.78;;;9.60;100.00
54308;BME280;40208;39.778;2.710;2023-02-16T09:00:30;102897.22;;;9.72;100.00
54308;BME280;40208;39.778;2.710;2023-02-16T09:03:17;102895.38;;;9.79;100.00
54308;BME280;40208;39.778;2.710;2023-02-16T09:06:03;102891.75;;;9.91;100.00
54308;BME280;40208;39.778;2.710;2023-02-16T09:08:51;102890.75;;;10.06;100.00
54308;BME280;40208;39.778;2.710;2023-02-16T09:11:36;102895.06;;;10.17;100.00
54308;BME280;40208;39.778;2.710;2023-02-16T09:14:21;102895.88;;;10.26;100.00
54308;BME280;40208;39.778;2.710;2023-02-16T09:17:06;102897.59;;;10.33;100.00
54308;BME280;40208;39.778;2.710;2023-02-16T09:19:50;102899.25;;;10.43;100.00
54308;BME280;40208;39.778;2.710;2023-02-16T09:22:35;102905.25;;;10.62;100.00
54308;BME280;40208;39.778;2.710;2023-02-16T09:25:19;102899.03;;;10.65;100.00
54308;BME280;40208;39.778;2.710;2023-02-16T09:28:05;102897.13;;;10.74;100.00
54308;BME280;40208;39.778;2.710;2023-02-16T09:30:52;102902.34;;;10.85;100.00
54308;BME280;40208;39.778;2.710;2023-02-16T09:33:37;102898.66;;;10.95;100.00
54308;BME280;40208;39.778;2.710;2023-02-16T09:36:22;102899.41;;;11.07;100.00
54308;BME280;40208;39.778;2.710;2023-02-16T09:39:07;102906.34;;;11.18;100.00
54308;BME280;40208;39.778;2.710;2023-02-16T09:47:25;102906.88;;;11.42;100.00
54308;BME280;40208;39.778;2.710;2023-02-16T09:50:17;102897.06;;;11.47;100.00
54308;BME280;40208;39.778;2.710;2023-02-16T09:53:11;102904.84;;;11.58;100.00
54308;BME280;40208;39.778;2.710;2023-02-16T09:59:12;102915.22;;;11.76;100.00
54308;BME280;40208;39.778;2.710;2023-02-16T10:02:15;102911.47;;;11.91;100.00
54308;BME280;40208;39.778;2.710;2023-02-16T10:05:11;102915.47;;;12.17;100.00
54308;BME280;40208;39.778;2.710;2023-02-16T10:13:28;102911.28;;;12.95;100.00
54308;BME280;40208;39.778;2.710;2023-02-16T10:16:18;102908.03;;;13.23;100.00
54308;BME280;40208;39.778;2.710;2023-02-16T10:22:11;102898.53;;;13.87;100.00
54308;BME280;40208;39.778;2.710;2023-02-16T10:28:06;102907.00;;;14.39;100.00
54308;BME280;40208;39.778;2.710;2023-02-16T10:39:18;102907.94;;;15.02;100.00
54308;BME280;40208;39.778;2.710;2023-02-16T10:42:06;102907.44;;;15.17;100.00
54308;BME280;40208;39.778;2.710;2023-02-16T10:47:44;102902.81;;;15.52;100.00
54308;BME280;40208;39.778;2.710;2023-02-16T10:50:35;102892.88;;;15.84;100.00
54308;BME280;40208;39.778;2.710;2023-02-16T10:53:33;102903.69;;;16.07;100.00
54308;BME280;40208;39.778;2.710;2023-02-16T10:59:11;102894.28;;;16.46;100.00
54308;BME280;40208;39.778;2.710;2023-02-16T11:01:58;102898.47;;;16.78;100.00
54308;BME280;40208;39.778;2.710;2023-02-16T11:04:43;102905.13;;;16.91;100.00
54308;BME280;40208;39.778;2.710;2023-02-16T11:07:29;102793.13;;;16.51;100.00
54308;BME280;40208;39.778;2.710;2023-02-16T11:10:19;102886.81;;;17.26;100.00
54308;BME280;40208;39.778;2.710;2023-02-16T11:13:04;102899.34;;;17.26;100.00
54308;BME280;40208;39.778;2.710;2023-02-16T11:15:50;102893.56;;;17.36;100.00
54308;BME280;40208;39.778;2.710;2023-02-16T11:18:38;102896.50;;;17.52;100.00
54308;BME280;40208;39.778;2.710;2023-02-16T11:21:41;102884.63;;;17.58;100.00
54308;BME280;40208;39.778;2.710;2023-02-16T11:24:27;102893.38;;;17.63;100.00
54308;BME280;40208;39.778;2.710;2023-02-16T11:30:16;102873.19;;;17.97;100.00
54308;BME280;40208;39.778;2.710;2023-02-16T11:33:19;102874.50;;;17.87;100.00
54308;BME280;40208;39.778;2.710;2023-02-16T11:36:28;102877.00;;;17.91;100.00
54308;BME280;40208;39.778;2.710;2023-02-16T11:39:24;102876.50;;;18.04;100.00
54308;BME280;40208;39.778;2.710;2023-02-16T11:42:17;102876.13;;;18.32;100.00
54308;BME280;40208;39.778;2.710;2023-02-16T11:45:03;102871.16;;;18.43;100.00
54308;BME280;40208;39.778;2.710;2023-02-16T11:47:51;102864.56;;;18.50;100.00
54308;BME280;40208;39.778;2.710;2023-02-16T11:50:37;102866.13;;;18.56;100.00
54308;BME280;40208;39.778;2.710;2023-02-16T11:53:24;102865.59;;;18.67;100.00
54308;BME280;40208;39.778;2.710;2023-02-16T12:02:11;102862.31;;;18.80;100.00
54308;BME280;40208;39.778;2.710;2023-02-16T12:05:04;102856.28;;;18.94;100.00
54308;BME280;40208;39.778;2.710;2023-02-16T12:08:16;102851.94;;;18.92;100.00
54308;BME280;40208;39.778;2.710;2023-02-16T12:14:02;102851.13;;;18.90;100.00
54308;BME280;40208;39.778;2.710;2023-02-16T12:19:39;102842.41;;;18.84;100.00
54308;BME280;40208;39.778;2.710;2023-02-16T12:45:38;102818.34;;;18.21;100.00
54308;BME280;40208;39.778;2.710;2023-02-16T12:48:44;102819.56;;;18.14;100.00
54308;BME280;40208;39.778;2.710;2023-02-16T12:51:35;102819.72;;;18.11;100.00
54308;BME280;40208;39.778;2.710;2023-02-16T12:54:27;102816.22;;;18.09;100.00
54308;BME280;40208;39.778;2.710;2023-02-16T12:57:14;102812.25;;;18.18;100.00
54308;BME280;40208;39.778;2.710;2023-02-16T13:06:07;102803.75;;;18.08;100.00
54308;BME280;40208;39.778;2.710;2023-02-16T13:11:53;102801.97;;;17.87;100.00
54308;BME280;40208;39.778;2.710;2023-02-16T13:14:41;102801.34;;;17.80;100.00
54308;BME280;40208;39.778;2.710;2023-02-16T13:17:31;102789.13;;;17.73;100.00
54308;BME280;40208;39.778;2.710;2023-02-16T13:20:18;102790.16;;;17.70;100.00
54308;BME280;40208;39.778;2.710;2023-02-16T13:23:17;102787.47;;;17.70;100.00
54308;BME280;40208;39.778;2.710;2023-02-16T13:32:10;102773.63;;;17.59;100.00
54308;BME280;40208;39.778;2.710;2023-02-16T13:35:01;102770.53;;;17.68;100.00
54308;BME280;40208;39.778;2.710;2023-02-16T13:46:29;102761.97;;;17.80;100.00
54308;BME280;40208;39.778;2.710;2023-02-16T13:49:36;102756.72;;;17.77;100.00
54308;BME280;40208;39.778;2.710;2023-02-16T13:52:28;102761.19;;;17.77;100.00
54308;BME280;40208;39.778;2.710;2023-02-16T14:00:49;102755.91;;;17.96;100.00
54308;BME280;40208;39.778;2.710;2023-02-16T14:03:35;102749.66;;;17.95;100.00
54308;BME280;40208;39.778;2.710;2023-02-16T14:06:37;102747.19;;;17.91;100.00
54308;BME280;40208;39.778;2.710;2023-02-16T14:12:17;102747.84;;;17.96;100.00
54308;BME280;40208;39.778;2.710;2023-02-16T14:15:03;102742.63;;;17.93;100.00
54308;BME280;40208;39.778;2.710;2023-02-16T14:17:48;102747.19;;;17.91;100.00
54308;BME280;40208;39.778;2.710;2023-02-16T14:20:39;102739.31;;;17.86;100.00
54308;BME280;40208;39.778;2.710;2023-02-16T14:23:28;102754.06;;;17.76;100.00
54308;BME280;40208;39.778;2.710;2023-02-16T14:26:17;102748.97;;;17.70;100.00
54308;BME280;40208;39.778;2.710;2023-02-16T14:29:09;102744.59;;;17.67;100.00
54308;BME280;40208;39.778;2.710;2023-02-16T14:34:53;102747.88;;;17.53;100.00
54308;BME280;40208;39.778;2.710;2023-02-16T14:37:53;102752.66;;;17.47;100.00
54308;BME280;40208;39.778;2.710;2023-02-16T14:43:30;102750.63;;;17.31;100.00
54308;BME280;40208;39.778;2.710;2023-02-16T14:52:22;102745.91;;;17.16;100.00
54308;BME280;40208;39.778;2.710;2023-02-16T15:03:46;102745.34;;;16.86;100.00
54308;BME280;40208;39.778;2.710;2023-02-16T15:06:37;102740.94;;;16.85;100.00
54308;BME280;40208;39.778;2.710;2023-02-16T15:09:27;102739.22;;;16.82;100.00
54308;BME280;40208;39.778;2.710;2023-02-16T15:12:14;102737.81;;;16.72;100.00
54308;BME280;40208;39.778;2.710;2023-02-16T15:15:07;102741.31;;;16.74;100.00
54308;BME280;40208;39.778;2.710;2023-02-16T15:17:55;102738.16;;;16.63;100.00
54308;BME280;40208;39.778;2.710;2023-02-16T15:20:40;102736.56;;;16.59;100.00
54308;BME280;40208;39.778;2.710;2023-02-16T15:23:28;102742.03;;;16.56;100.00
54308;BME280;40208;39.778;2.710;2023-02-16T15:26:20;102744.97;;;16.49;100.00
54308;BME280;40208;39.778;2.710;2023-02-16T15:29:22;102744.63;;;16.35;100.00
54308;BME280;40208;39.778;2.710;2023-02-16T15:32:07;102738.53;;;16.30;100.00
54308;BME280;40208;39.778;2.710;2023-02-16T15:34:52;102743.19;;;16.25;100.00
54308;BME280;40208;39.778;2.710;2023-02-16T15:37:37;102743.44;;;16.19;100.00
54308;BME280;40208;39.778;2.710;2023-02-16T15:40:24;102743.69;;;16.11;100.00
54308;BME280;40208;39.778;2.710;2023-02-16T15:46:00;102741.94;;;16.11;100.00
54308;BME280;40208;39.778;2.710;2023-02-16T15:48:45;102744.25;;;15.97;100.00
54308;BME280;40208;39.778;2.710;2023-02-16T15:51:30;102742.47;;;15.96;100.00
54308;BME280;40208;39.778;2.710;2023-02-16T15:54:21;102622.06;;;15.19;100.00
54308;BME280;40208;39.778;2.710;2023-02-16T15:57:11;102749.16;;;15.84;100.00
54308;BME280;40208;39.778;2.710;2023-02-16T15:59:59;102744.84;;;15.80;100.00
54308;BME280;40208;39.778;2.710;2023-02-16T16:02:50;102747.53;;;15.80;100.00
54308;BME280;40208;39.778;2.710;2023-02-16T16:05:35;102755.56;;;15.80;100.00
54308;BME280;40208;39.778;2.710;2023-02-16T16:08:20;102742.22;;;15.79;100.00
54308;BME280;40208;39.778;2.710;2023-02-16T16:11:07;102745.81;;;15.78;100.00
54308;BME280;40208;39.778;2.710;2023-02-16T16:13:52;102746.88;;;15.74;100.00
54308;BME280;40208;39.778;2.710;2023-02-16T16:16:37;102756.75;;;15.72;100.00
54308;BME280;40208;39.778;2.710;2023-02-16T16:19:32;102755.94;;;15.68;100.00
54308;BME280;40208;39.778;2.710;2023-02-16T16:31:12;102774.34;;;15.52;100.00
54308;BME280;40208;39.778;2.710;2023-02-16T16:33:58;102770.88;;;15.48;100.00
54308;BME280;40208;39.778;2.710;2023-02-16T16:36:45;102771.59;;;15.54;100.00
54308;BME280;40208;39.778;2.710;2023-02-16T16:39:31;102775.47;;;15.45;100.00
54308;BME280;40208;39.778;2.710;2023-02-16T16:42:17;102771.25;;;15.38;100.00
54308;BME280;40208;39.778;2.710;2023-02-16T16:47:49;102775.25;;;15.24;100.00
54308;BME280;40208;39.778;2.710;2023-02-16T16:50:37;102770.03;;;15.21;100.00
54308;BME280;40208;39.778;2.710;2023-02-16T16:56:12;102765.81;;;15.14;100.00
54308;BME280;40208;39.778;2.710;2023-02-16T16:58:57;102782.75;;;15.13;100.00
54308;BME280;40208;39.778;2.710;2023-02-16T17:01:42;102773.03;;;15.11;100.00
54308;BME280;40208;39.778;2.710;2023-02-16T17:04:29;102781.00;;;15.12;100.00
54308;BME280;40208;39.778;2.710;2023-02-16T17:07:13;102779.34;;;15.08;100.00
54308;BME280;40208;39.778;2.710;2023-02-16T17:09:58;102791.91;;;15.06;100.00
54308;BME280;40208;39.778;2.710;2023-02-16T17:12:43;102792.03;;;15.01;100.00
54308;BME280;40208;39.778;2.710;2023-02-16T17:18:14;102791.47;;;14.92;100.00
54308;BME280;40208;39.778;2.710;2023-02-16T17:20:59;102796.94;;;14.87;100.00
54308;BME280;40208;39.778;2.710;2023-02-16T17:23:44;102797.22;;;14.78;100.00
54308;BME280;40208;39.778;2.710;2023-02-16T17:26:29;102801.69;;;14.77;100.00
54308;BME280;40208;39.778;2.710;2023-02-16T17:29:13;102805.38;;;14.73;100.00
54308;BME280;40208;39.778;2.710;2023-02-16T17:31:59;102802.72;;;14.73;100.00
54308;BME280;40208;39.778;2.710;2023-02-16T17:34:43;102801.97;;;14.68;100.00